Time;durP1;ratioP1;P1;durP2;ratioP2;P2;SDS_P1;SDS_P2;PMS_P1;PMS_P2;Temp;Humidity;BMP_temperature;BMP_pressure;BME280_temperature;BME280_humidity;BME280_pressure;Samples;Min_cycle;Max_cycle;Signal;HPM_P1;HPM_P2
2022/10/12 00:00:49;;;;;;;12.73;8.67;;;;;;;5.05;100.00;102383.41;5031517;28;20037;-84
2022/10/12 00:03:15;;;;;;;12.53;9.00;;;;;;;5.02;100.00;102389.91;5031396;28;20037;-84
2022/10/12 00:05:40;;;;;;;12.63;8.80;;;;;;;4.81;100.00;102370.34;5031717;28;20044;-85
2022/10/12 00:08:06;;;;;;;13.17;9.10;;;;;;;5.09;100.00;102395.59;5031842;28;20065;-84
2022/10/12 00:10:32;;;;;;;12.73;9.13;;;;;;;4.95;100.00;102394.16;5030843;28;20072;-85
2022/10/12 00:12:58;;;;;;;17.07;10.43;;;;;;;4.95;100.00;102396.84;5031540;28;20037;-85
2022/10/12 00:15:24;;;;;;;14.83;10.77;;;;;;;4.90;100.00;102386.47;5029626;28;20056;-84
2022/10/12 00:17:49;;;;;;;18.13;12.00;;;;;;;4.93;100.00;102389.91;5031395;28;20037;-84
2022/10/12 00:20:15;;;;;;;20.57;11.47;;;;;;;4.90;100.00;102381.09;5031504;28;20068;-84
2022/10/12 00:22:40;;;;;;;15.93;11.37;;;;;;;5.00;100.00;102382.97;5031737;28;20594;-84
2022/10/12 00:25:06;;;;;;;17.00;11.87;;;;;;;4.98;100.00;102382.28;5030265;28;20418;-85
2022/10/12 00:27:32;;;;;;;18.97;11.87;;;;;;;5.04;100.00;102385.25;5031670;28;20037;-84
2022/10/12 00:29:57;;;;;;;18.20;12.03;;;;;;;4.97;100.00;102385.94;5030642;28;20481;-85
2022/10/12 00:32:22;;;;;;;17.67;11.30;;;;;;;5.00;100.00;102386.50;5030459;28;20095;-85
2022/10/12 00:34:48;;;;;;;17.33;10.60;;;;;;;4.92;100.00;102389.03;5031157;28;20041;-85
2022/10/12 00:37:13;;;;;;;17.13;11.03;;;;;;;4.87;100.00;102386.75;5005208;28;20156;-85
2022/10/12 00:39:38;;;;;;;17.53;10.47;;;;;;;4.82;100.00;102393.53;5030724;28;20041;-85
2022/10/12 00:42:04;;;;;;;16.67;10.77;;;;;;;4.88;100.00;102396.53;5030529;28;20044;-85
2022/10/12 00:44:44;;;;;;;17.93;11.70;;;;;;;4.90;100.00;102389.16;5031309;28;20136;-85
2022/10/12 00:47:30;;;;;;;16.77;10.97;;;;;;;4.84;100.00;102389.72;5005241;28;20044;-86
2022/10/12 00:50:14;;;;;;;14.40;10.17;;;;;;;4.78;100.00;102378.69;5021104;28;20072;-85
2022/10/12 00:52:49;;;;;;;14.98;10.05;;;;;;;4.78;100.00;102395.63;5005137;28;20028;-85
2022/10/12 00:55:18;;;;;;;14.45;9.88;;;;;;;4.66;100.00;102392.19;5029167;28;20098;-85
2022/10/12 00:57:46;;;;;;;15.13;10.30;;;;;;;4.79;100.00;102389.28;5030675;28;20051;-85
2022/10/12 01:00:12;;;;;;;15.17;9.83;;;;;;;4.70;100.00;102384.72;5004864;28;20033;-85
2022/10/12 01:02:40;;;;;;;12.67;9.67;;;;;;;4.72;100.00;102396.19;5030982;28;20048;-85
2022/10/12 01:05:07;;;;;;;15.77;9.87;;;;;;;4.68;100.00;102394.75;5030086;28;20029;-85
2022/10/12 01:07:33;;;;;;;16.43;10.53;;;;;;;4.70;100.00;102395.47;5030179;28;20040;-86
2022/10/12 01:09:58;;;;;;;16.97;9.90;;;;;;;4.67;100.00;102390.38;5030405;28;20412;-85
2022/10/12 01:12:25;;;;;;;15.80;10.20;;;;;;;4.69;100.00;102391.06;5030978;28;20500;-85
2022/10/12 01:14:50;;;;;;;16.63;10.27;;;;;;;4.69;100.00;102388.38;5030472;28;20035;-84
2022/10/12 01:17:34;;;;;;;17.40;10.80;;;;;;;4.82;100.00;102386.31;5030403;28;20029;-83
2022/10/12 01:20:15;;;;;;;14.57;10.02;;;;;;;4.77;100.00;102383.19;5030620;28;20143;-84
2022/10/12 01:22:48;;;;;;;16.03;10.67;;;;;;;4.81;100.00;102378.41;5004616;28;20091;-84
2022/10/12 01:25:24;;;;;;;15.13;10.57;;;;;;;4.91;100.00;102368.53;5021913;28;20073;-85
2022/10/12 01:28:10;;;;;;;17.57;10.57;;;;;;;4.92;100.00;102370.22;5029612;28;20037;-84
2022/10/12 01:30:43;;;;;;;15.27;9.53;;;;;;;5.04;100.00;102361.06;5029823;28;20123;-84
2022/10/12 01:33:12;;;;;;;16.63;10.83;;;;;;;4.91;100.00;102357.81;5029932;28;20029;-85
2022/10/12 01:36:01;;;;;;;16.30;10.50;;;;;;;4.86;100.00;102352.81;5029958;28;20025;-84
2022/10/12 01:38:38;;;;;;;17.27;10.97;;;;;;;4.78;100.00;102359.88;5003697;28;20075;-84
2022/10/12 01:41:21;;;;;;;18.97;12.50;;;;;;;4.81;100.00;102355.06;5019936;28;20076;-85
2022/10/12 01:43:50;;;;;;;17.43;11.73;;;;;;;4.89;100.00;102347.16;5029957;28;20029;-84
2022/10/12 01:46:15;;;;;;;17.43;11.23;;;;;;;4.88;100.00;102352.69;5019783;28;20026;-84
2022/10/12 01:48:43;;;;;;;18.87;12.47;;;;;;;4.85;100.00;102344.91;5029922;28;20032;-84
2022/10/12 01:51:11;;;;;;;17.20;11.60;;;;;;;4.82;100.00;102346.03;5029478;28;20085;-84
2022/10/12 01:53:55;;;;;;;16.67;10.53;;;;;;;4.95;100.00;102342.25;5030054;28;20381;-85
2022/10/12 01:56:42;;;;;;;18.43;10.80;;;;;;;5.03;100.00;102339.72;5027426;28;20056;-83
2022/10/12 01:59:10;;;;;;;16.00;10.90;;;;;;;5.05;100.00;102337.75;5032074;28;20287;-84
2022/10/12 02:01:39;;;;;;;14.77;10.30;;;;;;;5.00;100.00;102348.06;5033762;28;20064;-84
2022/10/12 02:04:07;;;;;;;17.13;10.33;;;;;;;4.95;100.00;102342.25;5033843;28;20059;-84
2022/10/12 02:06:40;;;;;;;15.67;9.93;;;;;;;4.97;100.00;102332.22;5032056;28;20393;-85
2022/10/12 02:09:17;;;;;;;16.07;10.43;;;;;;;4.92;100.00;102334.47;5032004;28;20053;-84
2022/10/12 02:11:47;;;;;;;16.37;10.73;;;;;;;4.85;100.00;102340.38;5033406;28;20036;-84
2022/10/12 02:14:17;;;;;;;17.60;10.63;;;;;;;4.81;100.00;102328.22;5033762;28;20150;-84
2022/10/12 02:16:54;;;;;;;15.53;10.33;;;;;;;5.02;100.00;102338.03;5033627;28;20469;-84
2022/10/12 02:19:27;;;;;;;19.17;10.77;;;;;;;4.83;100.00;102334.31;5023971;28;20280;-84
2022/10/12 02:21:59;;;;;;;15.80;10.10;;;;;;;4.79;100.00;102324.81;5030960;28;20033;-84
2022/10/12 02:24:27;;;;;;;17.57;10.53;;;;;;;4.92;100.00;102321.88;5034081;28;20076;-84
2022/10/12 02:26:55;;;;;;;15.50;10.30;;;;;;;4.87;100.00;102316.94;5032335;28;20037;-83
2022/10/12 02:29:30;;;;;;;19.23;10.67;;;;;;;4.86;100.00;102320.59;5024256;28;20500;-85
2022/10/12 02:31:58;;;;;;;14.10;10.17;;;;;;;4.85;100.00;102318.06;5031278;28;20041;-85
2022/10/12 02:34:30;;;;;;;18.10;10.40;;;;;;;4.97;100.00;102321.47;5033291;28;20654;-85
2022/10/12 02:37:01;;;;;;;15.60;10.10;;;;;;;4.96;100.00;102319.78;5033142;28;20059;-85
2022/10/12 02:39:53;;;;;;;17.60;10.13;;;;;;;4.87;100.00;102310.72;5033602;28;20127;-85
2022/10/12 02:42:28;;;;;;;14.53;9.80;;;;;;;4.86;100.00;102325.13;5022912;28;20040;-85
2022/10/12 02:44:54;;;;;;;15.70;9.77;;;;;;;4.80;100.00;102318.47;5023612;28;20045;-86
2022/10/12 02:47:23;;;;;;;15.50;10.17;;;;;;;4.72;100.00;102310.25;5023706;28;20044;-85
2022/10/12 02:49:50;;;;;;;15.17;9.93;;;;;;;4.68;100.00;102314.22;5032511;28;20381;-85
2022/10/12 02:52:16;;;;;;;14.40;9.73;;;;;;;4.71;100.00;102321.97;5032400;28;20496;-85
2022/10/12 02:54:41;;;;;;;15.67;9.60;;;;;;;4.86;100.00;102314.38;5033150;28;20049;-83
2022/10/12 02:57:07;;;;;;;14.30;9.67;;;;;;;4.77;100.00;102320.56;5030657;28;20718;-84
2022/10/12 02:59:32;;;;;;;14.63;9.03;;;;;;;4.64;100.00;102305.56;5033041;28;21351;-83
2022/10/12 03:01:57;;;;;;;15.40;9.53;;;;;;;4.56;100.00;102300.88;5032138;28;21811;-84
2022/10/12 03:04:23;;;;;;;14.93;9.40;;;;;;;4.55;100.00;102296.47;5033045;28;20053;-83
2022/10/12 03:06:48;;;;;;;16.47;9.63;;;;;;;4.55;100.00;102301.84;5032477;28;20554;-83
2022/10/12 03:09:13;;;;;;;14.50;9.47;;;;;;;4.61;100.00;102296.91;5032083;28;20045;-83
2022/10/12 03:11:42;;;;;;;16.87;10.03;;;;;;;4.64;100.00;102302.03;5032751;28;20040;-83
2022/10/12 03:14:13;;;;;;;12.67;8.80;;;;;;;4.70;100.00;102296.09;5007272;28;20037;-83
2022/10/12 03:16:39;;;;;;;14.43;8.70;;;;;;;4.65;100.00;102296.53;5031464;28;20042;-83
2022/10/12 03:19:05;;;;;;;10.70;8.33;;;;;;;4.60;100.00;102297.91;5032376;28;20041;-83
2022/10/12 03:21:30;;;;;;;10.87;8.27;;;;;;;4.63;100.00;102287.75;5031769;28;20385;-83
2022/10/12 03:23:55;;;;;;;13.07;8.30;;;;;;;4.63;100.00;102292.28;5032265;28;20084;-83
2022/10/12 03:26:21;;;;;;;12.30;8.33;;;;;;;4.53;100.00;102289.56;5031360;28;20069;-83
2022/10/12 03:28:46;;;;;;;11.27;8.30;;;;;;;4.56;100.00;102294.66;5031605;28;21163;-83
2022/10/12 03:31:12;;;;;;;14.10;8.50;;;;;;;4.49;100.00;102297.03;5032306;28;20370;-84
2022/10/12 03:33:37;;;;;;;11.70;8.57;;;;;;;4.54;100.00;102292.13;5031393;28;20044;-83
2022/10/12 03:36:03;;;;;;;13.23;8.73;;;;;;;4.47;100.00;102293.63;5031769;28;20112;-83
2022/10/12 03:38:28;;;;;;;11.33;7.90;;;;;;;4.47;100.00;102288.25;5031606;28;20087;-83
2022/10/12 03:40:53;;;;;;;15.17;8.60;;;;;;;4.45;100.00;102297.44;5032159;28;20049;-84
2022/10/12 03:43:19;;;;;;;16.10;9.60;;;;;;;4.57;100.00;102289.16;5031539;28;20033;-85
2022/10/12 03:45:44;;;;;;;11.13;8.17;;;;;;;4.45;100.00;102284.88;5031928;28;20036;-85
2022/10/12 03:48:09;;;;;;;12.17;8.03;;;;;;;4.44;100.00;102293.91;5029817;28;20462;-87
2022/10/12 03:50:35;;;;;;;13.77;8.80;;;;;;;4.45;100.00;102287.56;5032127;28;20060;-87
2022/10/12 03:53:05;;;;;;;16.57;10.30;;;;;;;4.61;100.00;102289.75;5031838;28;20530;-86
2022/10/12 03:55:31;;;;;;;22.33;11.60;;;;;;;4.67;100.00;102289.19;5031694;28;20052;-85
2022/10/12 03:57:56;;;;;;;19.73;11.23;;;;;;;4.64;100.00;102288.63;5005930;28;20033;-85
2022/10/12 04:00:23;;;;;;;17.27;10.77;;;;;;;4.64;100.00;102283.25;5006472;28;20043;-85
2022/10/12 04:02:48;;;;;;;13.43;8.83;;;;;;;4.60;100.00;102284.47;4995878;28;20044;-84
2022/10/12 04:05:13;;;;;;;17.27;9.83;;;;;;;4.51;100.00;102278.13;5031071;28;20061;-85
2022/10/12 04:07:39;;;;;;;16.83;10.23;;;;;;;4.61;100.00;102283.50;5029537;28;20542;-85
2022/10/12 04:10:05;;;;;;;15.27;9.70;;;;;;;4.48;100.00;102278.38;5006255;28;20037;-84
2022/10/12 04:12:30;;;;;;;18.93;9.93;;;;;;;4.55;100.00;102280.38;5005756;28;20584;-84
2022/10/12 04:14:56;;;;;;;14.30;9.70;;;;;;;4.44;100.00;102282.34;5031166;28;20048;-85
2022/10/12 04:17:21;;;;;;;15.83;10.27;;;;;;;4.56;100.00;102279.41;5029587;28;20921;-84
2022/10/12 04:19:47;;;;;;;16.13;9.40;;;;;;;4.49;100.00;102270.19;5031953;28;20851;-85
2022/10/12 04:22:12;;;;;;;15.53;9.70;;;;;;;4.46;100.00;102267.78;5029731;28;20041;-85
2022/10/12 04:24:38;;;;;;;19.53;10.50;;;;;;;4.52;100.00;102264.56;5006206;28;20794;-85
2022/10/12 04:27:03;;;;;;;18.23;11.17;;;;;;;4.55;100.00;102277.69;5030311;28;20045;-85
2022/10/12 04:29:28;;;;;;;21.03;11.10;;;;;;;4.45;100.00;102276.81;4978962;28;20100;-84
2022/10/12 04:31:54;;;;;;;14.97;9.67;;;;;;;4.52;100.00;102277.13;5030659;28;20050;-84
2022/10/12 04:34:19;;;;;;;19.10;9.63;;;;;;;4.40;100.00;102273.69;5005214;28;20041;-84
2022/10/12 04:36:45;;;;;;;14.63;9.20;;;;;;;4.39;100.00;102272.00;5030137;28;20392;-84
2022/10/12 04:39:13;;;;;;;17.40;10.23;;;;;;;4.38;100.00;102273.00;5030761;28;20041;-85
2022/10/12 04:41:38;;;;;;;15.33;9.67;;;;;;;4.35;100.00;102271.44;5031112;28;20032;-84
2022/10/12 04:44:05;;;;;;;15.70;10.23;;;;;;;4.34;100.00;102276.94;5030219;28;20044;-84
2022/10/12 04:46:30;;;;;;;16.17;10.30;;;;;;;4.29;100.00;102273.81;5030702;28;20124;-84
2022/10/12 04:48:56;;;;;;;18.73;10.87;;;;;;;4.26;100.00;102276.72;5030359;28;20106;-84
2022/10/12 04:51:21;;;;;;;17.00;9.97;;;;;;;4.27;100.00;102281.13;5006426;28;20152;-85
2022/10/12 04:53:47;;;;;;;15.07;9.97;;;;;;;4.15;100.00;102262.44;5030984;28;20364;-84
2022/10/12 04:56:12;;;;;;;18.13;10.03;;;;;;;4.22;100.00;102271.66;5030541;28;20115;-84
2022/10/12 04:58:37;;;;;;;18.40;10.60;;;;;;;4.20;100.00;102279.00;5030865;28;20045;-84
2022/10/12 05:01:03;;;;;;;15.10;9.20;;;;;;;4.27;100.00;102286.50;5030040;28;20365;-84
2022/10/12 05:03:28;;;;;;;16.27;9.23;;;;;;;4.19;100.00;102282.66;5031112;28;20037;-84
2022/10/12 05:05:54;;;;;;;14.37;8.70;;;;;;;4.14;100.00;102298.28;5004103;28;20072;-83
2022/10/12 05:08:19;;;;;;;14.73;8.80;;;;;;;4.12;100.00;102283.31;5030402;28;20041;-84
2022/10/12 05:10:45;;;;;;;13.63;8.40;;;;;;;4.04;100.00;102276.78;5030427;28;20124;-84
2022/10/12 05:13:11;;;;;;;13.47;8.87;;;;;;;4.01;100.00;102273.53;5030207;28;20037;-84
2022/10/12 05:15:37;;;;;;;14.40;9.07;;;;;;;4.04;100.00;102278.63;5021943;28;20087;-83
2022/10/12 05:18:03;;;;;;;14.30;8.70;;;;;;;4.04;100.00;102276.78;5020943;28;20094;-84
2022/10/12 05:20:29;;;;;;;14.57;9.00;;;;;;;4.04;100.00;102278.63;5021679;28;20045;-83
2022/10/12 05:22:56;;;;;;;13.90;8.77;;;;;;;3.96;100.00;102263.22;5030173;28;21403;-84
2022/10/12 05:25:22;;;;;;;14.20;8.87;;;;;;;3.99;100.00;102270.13;5030289;28;20049;-84
2022/10/12 05:27:47;;;;;;;17.23;9.17;;;;;;;3.94;100.00;102242.88;5029167;28;20069;-84
2022/10/12 05:30:12;;;;;;;13.73;8.37;;;;;;;3.96;100.00;102263.22;5030330;28;20044;-85
2022/10/12 05:32:38;;;;;;;12.40;7.67;;;;;;;3.87;100.00;102256.78;5028861;28;20040;-85
2022/10/12 05:35:03;;;;;;;14.93;9.13;;;;;;;4.08;100.00;102261.28;5030026;28;20028;-85
2022/10/12 05:37:29;;;;;;;14.27;8.50;;;;;;;3.95;100.00;102256.13;5029363;28;20068;-85
2022/10/12 05:39:54;;;;;;;15.30;8.40;;;;;;;3.91;100.00;102252.03;5004485;28;20094;-85
2022/10/12 05:42:19;;;;;;;14.27;8.80;;;;;;;3.92;100.00;102263.59;5029926;28;20040;-85
2022/10/12 05:44:45;;;;;;;17.50;9.57;;;;;;;4.10;100.00;102264.69;5030323;28;20037;-85
2022/10/12 05:47:10;;;;;;;13.77;9.07;;;;;;;3.93;100.00;102267.97;5029751;28;20412;-85
2022/10/12 05:49:35;;;;;;;16.47;9.40;;;;;;;4.07;100.00;102259.59;5004100;28;20362;-85
2022/10/12 05:52:01;;;;;;;12.67;8.30;;;;;;;3.89;100.00;102254.84;5005101;28;20250;-85
2022/10/12 05:54:26;;;;;;;11.97;7.57;;;;;;;3.86;100.00;102257.78;5030131;28;20033;-85
2022/10/12 05:56:52;;;;;;;11.23;8.00;;;;;;;3.80;100.00;102236.88;5029441;28;20040;-85
2022/10/12 05:59:17;;;;;;;18.67;10.23;;;;;;;3.95;100.00;102256.13;5029214;28;20082;-85
2022/10/12 06:01:42;;;;;;;15.37;9.33;;;;;;;3.86;100.00;102256.94;5020703;28;20095;-85
2022/10/12 06:04:08;;;;;;;15.13;10.20;;;;;;;4.07;100.00;102264.94;5029310;28;20037;-85
2022/10/12 06:06:33;;;;;;;20.23;10.77;;;;;;;4.06;100.00;102253.34;5004545;28;20041;-85
2022/10/12 06:08:58;;;;;;;17.73;10.20;;;;;;;4.07;100.00;102267.63;5027889;28;20037;-84
2022/10/12 06:11:24;;;;;;;17.63;11.23;;;;;;;4.09;100.00;102260.28;5029749;28;20037;-85
2022/10/12 06:13:50;;;;;;;22.20;11.83;;;;;;;4.12;100.00;102265.41;5021103;28;20037;-86
2022/10/12 06:16:15;;;;;;;18.97;11.40;;;;;;;4.13;100.00;102252.84;5028277;28;20094;-84
2022/10/12 06:18:40;;;;;;;16.33;9.93;;;;;;;4.16;100.00;102265.97;5029820;28;20045;-84
2022/10/12 06:21:06;;;;;;;15.63;10.67;;;;;;;4.14;100.00;102262.59;5029558;28;20045;-85
2022/10/12 06:23:31;;;;;;;15.20;10.20;;;;;;;4.20;100.00;102267.41;5029355;28;20033;-84
2022/10/12 06:25:57;;;;;;;15.93;10.73;;;;;;;4.32;100.00;102262.78;5030034;28;20055;-84
2022/10/12 06:28:22;;;;;;;16.13;10.70;;;;;;;4.39;100.00;102263.94;5038324;28;20037;-84
2022/10/12 06:30:56;;;;;;;20.03;12.40;;;;;;;4.48;100.00;102263.13;5049767;28;20025;-84
2022/10/12 06:33:22;;;;;;;18.75;11.50;;;;;;;4.43;100.00;102256.47;5018764;28;20112;-84
2022/10/12 06:35:47;;;;;;;21.07;12.50;;;;;;;4.54;100.00;102256.34;5037575;28;20029;-84
2022/10/12 06:38:13;;;;;;;21.47;12.20;;;;;;;4.59;100.00;102259.47;5041021;28;20064;-84
2022/10/12 06:40:38;;;;;;;21.10;12.93;;;;;;;4.59;100.00;102258.66;5053056;28;20036;-84
2022/10/12 06:43:04;;;;;;;23.30;12.57;;;;;;;4.64;100.00;102257.25;5021359;28;20424;-84
2022/10/12 06:45:29;;;;;;;19.13;11.63;;;;;;;4.73;100.00;102258.22;5015066;28;20033;-84
2022/10/12 06:47:55;;;;;;;23.17;13.13;;;;;;;4.78;100.00;102256.00;5056256;28;20032;-84
2022/10/12 06:50:21;;;;;;;22.47;13.17;;;;;;;4.88;100.00;102256.00;5028720;28;20037;-84
2022/10/12 06:52:46;;;;;;;24.60;13.60;;;;;;;4.83;100.00;102242.16;5023079;28;20121;-84
2022/10/12 06:55:12;;;;;;;24.87;13.30;;;;;;;5.04;100.00;102268.88;5048477;28;20060;-83
2022/10/12 06:57:37;;;;;;;22.80;13.13;;;;;;;5.11;100.00;102267.31;5022771;28;20039;-84
2022/10/12 07:00:05;;;;;;;23.70;13.90;;;;;;;5.12;100.00;102255.59;5048686;28;20100;-84
2022/10/12 07:03:27;;;;;;;23.93;13.77;;;;;;;5.23;100.00;102263.50;5044117;28;20032;-85
2022/10/12 07:05:52;;;;;;;23.27;14.27;;;;;;;5.26;100.00;102253.47;5035452;28;20057;-84
2022/10/12 07:08:17;;;;;;;21.93;13.80;;;;;;;5.30;100.00;102253.03;5036177;28;20074;-84
2022/10/12 07:10:43;;;;;;;24.97;13.23;;;;;;;5.33;100.00;102251.91;5044469;28;20068;-84
2022/10/12 07:13:08;;;;;;;23.03;14.47;;;;;;;5.32;100.00;102251.06;5051636;28;20073;-84
2022/10/12 07:15:33;;;;;;;21.50;13.63;;;;;;;5.33;100.00;102236.66;5035897;28;20044;-84
2022/10/12 07:17:59;;;;;;;26.90;14.00;;;;;;;5.43;100.00;102251.88;5023006;28;20111;-85
2022/10/12 07:20:24;;;;;;;25.37;14.40;;;;;;;5.45;100.00;102245.38;5043287;28;20025;-84
2022/10/12 07:22:53;;;;;;;26.00;14.17;;;;;;;5.52;100.00;102251.03;5055831;28;20027;-84
2022/10/12 07:25:18;;;;;;;23.23;13.93;;;;;;;5.55;100.00;102258.84;5053485;28;20159;-85
2022/10/12 07:27:47;;;;;;;23.60;13.70;;;;;;;5.51;100.00;102250.19;5037684;28;20037;-84
2022/10/12 07:30:12;;;;;;;22.57;13.80;;;;;;;5.59;100.00;102244.13;5017706;28;20083;-84
2022/10/12 07:32:37;;;;;;;24.80;14.43;;;;;;;5.63;100.00;102236.59;5014767;28;20033;-85
2022/10/12 07:35:03;;;;;;;28.33;15.97;;;;;;;5.64;100.00;102240.97;5011903;28;20059;-84
2022/10/12 07:37:28;;;;;;;25.07;14.97;;;;;;;5.70;100.00;102246.63;5027610;28;20041;-84
2022/10/12 07:39:56;;;;;;;27.30;16.47;;;;;;;5.74;100.00;102244.50;5018634;28;20116;-85
2022/10/12 07:42:22;;;;;;;28.30;18.00;;;;;;;5.79;100.00;102242.19;5040411;28;20021;-88
2022/10/12 07:44:47;;;;;;;26.63;16.60;;;;;;;5.90;100.00;102247.44;5034829;28;20120;-87
2022/10/12 07:47:12;;;;;;;28.13;15.93;;;;;;;6.13;100.00;102247.06;5040835;28;20536;-87
2022/10/12 07:49:38;;;;;;;25.87;15.83;;;;;;;6.42;100.00;102248.81;5021186;28;20415;-87
2022/10/12 07:52:03;;;;;;;23.73;14.70;;;;;;;6.54;100.00;102252.13;5017377;28;20030;-89
2022/10/12 07:54:29;;;;;;;23.10;14.20;;;;;;;6.68;100.00;102261.56;5039823;28;20025;-88
2022/10/12 07:56:55;;;;;;;26.20;15.20;;;;;;;6.73;100.00;102232.31;5023730;28;20063;-87
2022/10/12 07:59:20;;;;;;;28.13;15.73;;;;;;;6.99;100.00;102243.19;5049581;28;20036;-88
2022/10/12 08:01:45;;;;;;;24.10;14.97;;;;;;;7.40;100.00;102257.03;5036079;28;20500;-87
2022/10/12 08:04:11;;;;;;;26.73;14.90;;;;;;;7.77;100.00;102266.72;5055768;28;20029;-89
2022/10/12 08:06:36;;;;;;;26.40;14.70;;;;;;;8.07;100.00;102261.84;5040935;28;20056;-87
2022/10/12 08:09:02;;;;;;;25.97;14.00;;;;;;;8.44;99.61;102265.22;5015736;28;20120;-89
2022/10/12 08:11:28;;;;;;;23.63;13.20;;;;;;;8.66;95.14;102263.81;5017844;28;20056;-87
2022/10/12 08:13:54;;;;;;;23.80;12.90;;;;;;;8.95;93.31;102259.84;5033181;28;20030;-89
2022/10/12 08:16:20;;;;;;;23.27;12.60;;;;;;;9.26;92.81;102261.88;5017811;28;20033;-89
2022/10/12 08:18:46;;;;;;;24.20;13.10;;;;;;;9.44;91.19;102264.44;5035070;28;20027;-89
2022/10/12 08:21:13;;;;;;;22.27;12.60;;;;;;;9.42;88.20;102261.91;5043968;28;20104;-89
2022/10/12 08:23:39;;;;;;;20.67;12.90;;;;;;;9.44;89.33;102246.34;5051814;28;20032;-89
2022/10/12 08:26:06;;;;;;;23.70;13.33;;;;;;;9.59;88.61;102259.19;5047228;28;20391;-89
2022/10/12 08:28:32;;;;;;;24.20;13.00;;;;;;;9.80;89.15;102264.06;5028702;28;20030;-88
2022/10/12 08:30:57;;;;;;;22.83;13.20;;;;;;;10.18;88.04;102261.59;5013673;28;20030;-91
2022/10/12 08:33:23;;;;;;;23.97;13.00;;;;;;;10.58;86.35;102253.50;5014059;28;20071;-89
2022/10/12 08:35:48;;;;;;;22.07;12.60;;;;;;;10.92;83.98;102255.84;4998077;28;20030;-89
2022/10/12 08:38:14;;;;;;;21.53;12.37;;;;;;;11.06;81.46;102253.41;5013636;28;20184;-90
2022/10/12 08:41:04;;;;;;;23.50;12.83;;;;;;;11.48;84.59;102252.88;5032009;28;20032;-89
2022/10/12 08:43:58;;;;;;;26.20;13.27;;;;;;;12.03;82.62;102249.97;5018864;28;20493;-90
2022/10/12 08:46:25;;;;;;;24.40;13.03;;;;;;;12.22;79.60;102251.28;5009763;28;20025;-88
2022/10/12 08:49:27;;;;;;;25.13;12.70;;;;;;;12.83;80.42;102258.31;4992415;28;20064;-88
2022/10/12 08:51:55;;;;;;;25.90;13.10;;;;;;;12.91;75.09;102258.19;4980671;28;20065;-89
2022/10/12 08:54:28;;;;;;;23.10;11.93;;;;;;;13.21;73.69;102252.63;5006955;28;20553;-89
2022/10/12 08:57:16;;;;;;;22.20;12.13;;;;;;;13.70;76.36;102255.59;5010907;28;21685;-89
2022/10/12 08:59:42;;;;;;;19.83;11.13;;;;;;;13.64;71.46;102240.84;5024783;28;20037;-89
2022/10/12 09:02:33;;;;;;;23.87;12.40;;;;;;;14.09;74.59;102255.00;5011769;28;20022;-90
2022/10/12 09:05:02;;;;;;;22.67;12.50;;;;;;;14.14;70.59;102252.53;5027426;28;20050;-89
2022/10/12 09:07:38;;;;;;;21.70;11.97;;;;;;;14.27;68.95;102251.72;5015901;28;20458;-90
2022/10/12 09:10:32;;;;;;;20.77;11.83;;;;;;;14.49;70.96;102254.34;5007847;28;20026;-90
2022/10/12 09:13:08;;;;;;;21.30;12.07;;;;;;;14.53;70.48;102252.91;5015294;28;20041;-89
2022/10/12 09:15:50;;;;;;;23.23;12.43;;;;;;;14.32;69.15;102262.88;5014268;28;20022;-89
2022/10/12 09:18:40;;;;;;;23.50;12.80;;;;;;;14.39;71.50;102264.78;5004291;28;20152;-89
2022/10/12 09:21:10;;;;;;;24.90;12.00;;;;;;;14.15;68.50;102266.97;5020476;28;20060;-90
2022/10/12 09:23:41;;;;;;;22.93;11.87;;;;;;;14.15;69.02;102276.00;5005803;28;20030;-88
2022/10/12 09:26:12;;;;;;;22.43;12.43;;;;;;;14.34;68.31;102274.41;5033854;28;20359;-90
2022/10/12 09:28:43;;;;;;;20.77;11.50;;;;;;;14.20;67.89;102272.69;5039454;28;20126;-88
2022/10/12 09:31:17;;;;;;;24.83;12.93;;;;;;;13.91;68.82;102274.59;5038862;28;20027;-91
2022/10/12 09:33:45;;;;;;;25.05;13.98;;;;;;;13.79;67.61;102274.31;5026954;28;20441;-90
2022/10/12 09:36:17;;;;;;;22.33;13.50;;;;;;;13.75;68.43;102274.88;5043533;28;20041;-90
2022/10/12 09:38:42;;;;;;;23.20;14.07;;;;;;;13.55;67.59;102264.69;5031999;28;20021;-89
2022/10/12 09:41:31;;;;;;;25.67;14.07;;;;;;;13.45;70.34;102264.16;5018465;28;20384;-89
2022/10/12 09:44:00;;;;;;;26.17;15.30;;;;;;;13.63;70.51;102253.63;5039432;28;20487;-89
2022/10/12 09:49:49;;;;;;;23.93;14.73;;;;;;;14.22;68.10;102256.13;5047737;28;20381;-88
2022/10/12 09:52:22;;;;;;;27.50;14.40;;;;;;;14.26;67.25;102260.94;5044144;28;20104;-88
2022/10/12 09:54:53;;;;;;;24.47;14.83;;;;;;;14.12;66.29;102259.22;5033040;28;20104;-89
2022/10/12 09:57:30;;;;;;;24.97;15.40;;;;;;;14.30;68.23;102258.66;5035171;28;20112;-89
2022/10/12 09:59:56;;;;;;;25.63;15.37;;;;;;;14.38;66.50;102254.94;5019960;28;20035;-88
2022/10/12 10:02:23;;;;;;;23.73;14.90;;;;;;;14.22;66.18;102250.66;5030934;28;20067;-88
2022/10/12 10:04:50;;;;;;;24.70;14.37;;;;;;;14.40;66.08;102258.28;5031464;28;20063;-90
2022/10/12 10:07:34;;;;;;;25.37;14.90;;;;;;;14.68;69.32;102248.16;5033010;28;20083;-89
2022/10/12 10:10:16;;;;;;;25.63;15.20;;;;;;;14.64;65.95;102252.34;5020662;28;20810;-88
2022/10/12 10:12:46;;;;;;;23.80;15.23;;;;;;;14.70;66.09;102239.78;5031577;28;20031;-88
2022/10/12 10:15:19;;;;;;;26.50;15.87;;;;;;;14.93;66.33;102233.09;5039065;28;20025;-90
2022/10/12 10:17:48;;;;;;;24.95;15.35;;;;;;;15.13;64.77;102222.22;5047700;28;20092;-88
2022/10/12 10:20:26;;;;;;;22.53;13.50;;;;;;;15.32;63.50;102231.47;5035285;28;20033;-89
2022/10/12 10:22:52;;;;;;;25.63;14.37;;;;;;;15.43;63.01;102221.81;5034658;28;20036;-89
2022/10/12 10:25:21;;;;;;;26.37;15.43;;;;;;;15.32;62.32;102228.75;5057522;28;20045;-88
2022/10/12 10:27:46;;;;;;;22.73;14.77;;;;;;;15.49;62.94;102223.69;5056844;28;20063;-89
2022/10/12 10:30:15;;;;;;;24.47;14.17;;;;;;;15.34;61.81;102230.22;5002620;28;20057;-88
2022/10/12 10:32:43;;;;;;;23.00;14.93;;;;;;;15.39;62.07;102234.22;5047721;28;20025;-89
2022/10/12 10:35:11;;;;;;;25.37;14.57;;;;;;;15.44;63.27;102237.97;5051406;28;20037;-88
2022/10/12 10:37:43;;;;;;;22.33;13.73;;;;;;;15.68;62.86;102236.50;5055128;28;20364;-89
2022/10/12 10:40:23;;;;;;;23.93;13.57;;;;;;;15.76;64.16;102237.31;5036502;28;20025;-90
2022/10/12 10:42:51;;;;;;;22.67;13.03;;;;;;;15.70;60.91;102237.13;5055629;28;20044;-89
2022/10/12 10:45:44;;;;;;;21.73;13.53;;;;;;;15.89;61.83;102241.97;5023490;28;20075;-91
2022/10/12 10:48:16;;;;;;;26.77;13.20;;;;;;;15.93;61.61;102241.31;5033009;28;20523;-89
2022/10/12 10:50:48;;;;;;;21.98;13.10;;;;;;;15.74;61.06;102229.34;5048974;28;20018;-90
2022/10/12 10:53:21;;;;;;;23.67;12.60;;;;;;;15.76;60.58;102226.38;5039711;28;20107;-89
2022/10/12 10:55:53;;;;;;;23.85;12.82;;;;;;;16.07;61.75;102231.19;5056046;28;20035;-90
2022/10/12 10:58:26;;;;;;;23.00;13.33;;;;;;;16.07;59.79;102230.34;5034223;28;20044;-90
2022/10/12 11:00:57;;;;;;;22.40;12.53;;;;;;;15.91;62.88;102227.03;5028375;28;20052;-89
2022/10/12 11:03:46;;;;;;;23.38;12.20;;;;;;;16.32;59.69;102214.06;5038407;28;20052;-89
2022/10/12 11:06:17;;;;;;;21.50;11.48;;;;;;;16.65;60.08;102218.53;4997392;28;20432;-90
2022/10/12 11:08:45;;;;;;;20.27;11.98;;;;;;;16.84;59.20;102216.75;5045041;28;20056;-89
2022/10/12 11:11:15;;;;;;;19.75;11.48;;;;;;;16.94;59.47;102211.63;5030394;28;20071;-90
2022/10/12 11:13:46;;;;;;;21.13;11.63;;;;;;;16.90;58.33;102196.72;5045521;28;20074;-90
2022/10/12 11:16:21;;;;;;;20.27;11.85;;;;;;;16.84;57.31;102201.16;5026492;28;20496;-88
2022/10/12 11:18:53;;;;;;;19.40;10.38;;;;;;;16.90;58.57;102193.16;5044425;28;20477;-89
2022/10/12 11:21:37;;;;;;;21.52;11.30;;;;;;;16.98;59.28;102196.44;5033125;28;20029;-90
2022/10/12 11:24:31;;;;;;;23.65;11.55;;;;;;;16.84;58.37;102171.03;5042951;28;20041;-89